sensor_id;sensor_type;location;lat;lon;timestamp;P1;durP1;ratioP1;P2;durP2;ratioP2
4521;SDS011;2273;48.464;11.926;2023-07-13T00:01:41;18.37;;;7.00;;
4521;SDS011;2273;48.464;11.926;2023-07-13T00:04:08;12.43;;;7.87;;
4521;SDS011;2273;48.464;11.926;2023-07-13T00:06:33;12.80;;;6.70;;
4521;SDS011;2273;48.464;11.926;2023-07-13T00:09:00;16.90;;;7.20;;
4521;SDS011;2273;48.464;11.926;2023-07-13T00:11:26;11.50;;;6.13;;
4521;SDS011;2273;48.464;11.926;2023-07-13T00:13:52;11.80;;;7.17;;
4521;SDS011;2273;48.464;11.926;2023-07-13T00:16:17;11.73;;;7.33;;
4521;SDS011;2273;48.464;11.926;2023-07-13T00:18:44;16.60;;;7.70;;
4521;SDS011;2273;48.464;11.926;2023-07-13T00:21:09;13.20;;;6.83;;
4521;SDS011;2273;48.464;11.926;2023-07-13T00:23:35;17.67;;;8.30;;
4521;SDS011;2273;48.464;11.926;2023-07-13T00:26:03;12.63;;;7.00;;
4521;SDS011;2273;48.464;11.926;2023-07-13T00:28:29;26.47;;;7.57;;
4521;SDS011;2273;48.464;11.926;2023-07-13T00:30:55;12.60;;;8.00;;
4521;SDS011;2273;48.464;11.926;2023-07-13T00:33:21;24.63;;;7.63;;
4521;SDS011;2273;48.464;11.926;2023-07-13T00:35:48;12.93;;;7.60;;
4521;SDS011;2273;48.464;11.926;2023-07-13T00:38:13;17.40;;;7.70;;
4521;SDS011;2273;48.464;11.926;2023-07-13T00:40:39;13.50;;;7.70;;
4521;SDS011;2273;48.464;11.926;2023-07-13T00:43:09;17.40;;;7.70;;
4521;SDS011;2273;48.464;11.926;2023-07-13T00:48:09;17.83;;;8.30;;
4521;SDS011;2273;48.464;11.926;2023-07-13T00:50:35;20.67;;;8.43;;
4521;SDS011;2273;48.464;11.926;2023-07-13T00:53:01;12.13;;;7.70;;
4521;SDS011;2273;48.464;11.926;2023-07-13T00:55:28;14.17;;;7.97;;
4521;SDS011;2273;48.464;11.926;2023-07-13T00:57:54;17.93;;;8.13;;
4521;SDS011;2273;48.464;11.926;2023-07-13T01:00:19;18.13;;;7.33;;
4521;SDS011;2273;48.464;11.926;2023-07-13T01:02:46;13.03;;;7.47;;
4521;SDS011;2273;48.464;11.926;2023-07-13T01:05:13;15.33;;;6.87;;
4521;SDS011;2273;48.464;11.926;2023-07-13T01:07:40;18.00;;;7.00;;
4521;SDS011;2273;48.464;11.926;2023-07-13T01:10:06;12.90;;;7.00;;
4521;SDS011;2273;48.464;11.926;2023-07-13T01:12:32;14.77;;;7.53;;
4521;SDS011;2273;48.464;11.926;2023-07-13T01:14:58;13.00;;;7.00;;
4521;SDS011;2273;48.464;11.926;2023-07-13T01:17:25;14.70;;;6.57;;
4521;SDS011;2273;48.464;11.926;2023-07-13T01:19:51;16.30;;;7.10;;
4521;SDS011;2273;48.464;11.926;2023-07-13T01:22:17;10.17;;;5.90;;
4521;SDS011;2273;48.464;11.926;2023-07-13T01:24:44;10.60;;;6.30;;
4521;SDS011;2273;48.464;11.926;2023-07-13T01:27:13;15.90;;;7.27;;
4521;SDS011;2273;48.464;11.926;2023-07-13T01:29:42;10.80;;;5.70;;
4521;SDS011;2273;48.464;11.926;2023-07-13T01:32:09;14.40;;;6.30;;
4521;SDS011;2273;48.464;11.926;2023-07-13T01:34:36;9.80;;;5.53;;
4521;SDS011;2273;48.464;11.926;2023-07-13T01:37:02;12.00;;;6.00;;
4521;SDS011;2273;48.464;11.926;2023-07-13T01:39:29;10.10;;;5.43;;
4521;SDS011;2273;48.464;11.926;2023-07-13T01:41:55;9.97;;;5.50;;
4521;SDS011;2273;48.464;11.926;2023-07-13T01:44:20;10.33;;;5.57;;
4521;SDS011;2273;48.464;11.926;2023-07-13T01:46:46;10.00;;;5.40;;
4521;SDS011;2273;48.464;11.926;2023-07-13T01:49:11;11.17;;;5.10;;
4521;SDS011;2273;48.464;11.926;2023-07-13T01:51:36;12.57;;;5.30;;
4521;SDS011;2273;48.464;11.926;2023-07-13T01:54:03;13.17;;;5.73;;
4521;SDS011;2273;48.464;11.926;2023-07-13T01:56:28;11.90;;;5.07;;
4521;SDS011;2273;48.464;11.926;2023-07-13T01:58:54;14.10;;;5.50;;
4521;SDS011;2273;48.464;11.926;2023-07-13T02:01:19;10.13;;;5.97;;
4521;SDS011;2273;48.464;11.926;2023-07-13T02:03:45;17.80;;;4.90;;
4521;SDS011;2273;48.464;11.926;2023-07-13T02:06:12;14.47;;;5.23;;
4521;SDS011;2273;48.464;11.926;2023-07-13T02:08:37;23.83;;;4.90;;
4521;SDS011;2273;48.464;11.926;2023-07-13T02:11:03;15.27;;;5.47;;
4521;SDS011;2273;48.464;11.926;2023-07-13T02:13:28;18.37;;;5.80;;
4521;SDS011;2273;48.464;11.926;2023-07-13T02:15:54;17.90;;;5.70;;
4521;SDS011;2273;48.464;11.926;2023-07-13T02:18:19;11.43;;;5.27;;
4521;SDS011;2273;48.464;11.926;2023-07-13T02:20:45;12.50;;;5.10;;
4521;SDS011;2273;48.464;11.926;2023-07-13T02:23:11;15.03;;;5.40;;
4521;SDS011;2273;48.464;11.926;2023-07-13T02:25:36;13.00;;;5.80;;
4521;SDS011;2273;48.464;11.926;2023-07-13T02:28:02;12.07;;;5.13;;
4521;SDS011;2273;48.464;11.926;2023-07-13T02:30:28;11.90;;;5.40;;
4521;SDS011;2273;48.464;11.926;2023-07-13T02:32:55;17.40;;;5.90;;
4521;SDS011;2273;48.464;11.926;2023-07-13T02:35:21;16.00;;;5.33;;
4521;SDS011;2273;48.464;11.926;2023-07-13T02:37:47;14.40;;;5.00;;
4521;SDS011;2273;48.464;11.926;2023-07-13T02:40:12;6.50;;;4.43;;
4521;SDS011;2273;48.464;11.926;2023-07-13T02:42:38;8.53;;;4.73;;
4521;SDS011;2273;48.464;11.926;2023-07-13T02:45:03;15.17;;;5.07;;
4521;SDS011;2273;48.464;11.926;2023-07-13T02:47:29;15.38;;;4.95;;
4521;SDS011;2273;48.464;11.926;2023-07-13T02:49:56;12.93;;;4.43;;
4521;SDS011;2273;48.464;11.926;2023-07-13T02:52:22;10.10;;;4.63;;
4521;SDS011;2273;48.464;11.926;2023-07-13T02:54:47;13.20;;;5.33;;
4521;SDS011;2273;48.464;11.926;2023-07-13T02:57:12;14.10;;;5.10;;
4521;SDS011;2273;48.464;11.926;2023-07-13T02:59:38;10.53;;;5.60;;
4521;SDS011;2273;48.464;11.926;2023-07-13T03:02:04;12.83;;;5.50;;
4521;SDS011;2273;48.464;11.926;2023-07-13T03:04:29;11.97;;;4.93;;
4521;SDS011;2273;48.464;11.926;2023-07-13T03:06:55;9.03;;;5.40;;
4521;SDS011;2273;48.464;11.926;2023-07-13T03:09:26;14.50;;;5.50;;
4521;SDS011;2273;48.464;11.926;2023-07-13T03:11:56;11.30;;;5.27;;
4521;SDS011;2273;48.464;11.926;2023-07-13T03:14:30;9.77;;;5.27;;
4521;SDS011;2273;48.464;11.926;2023-07-13T03:16:56;10.40;;;6.03;;
4521;SDS011;2273;48.464;11.926;2023-07-13T03:19:24;13.30;;;6.30;;
4521;SDS011;2273;48.464;11.926;2023-07-13T03:21:50;12.80;;;5.70;;
4521;SDS011;2273;48.464;11.926;2023-07-13T03:24:16;9.43;;;5.47;;
4521;SDS011;2273;48.464;11.926;2023-07-13T03:26:42;17.20;;;6.07;;
4521;SDS011;2273;48.464;11.926;2023-07-13T03:29:08;15.53;;;6.17;;
4521;SDS011;2273;48.464;11.926;2023-07-13T03:31:34;11.23;;;6.50;;
4521;SDS011;2273;48.464;11.926;2023-07-13T03:34:01;15.73;;;6.10;;
4521;SDS011;2273;48.464;11.926;2023-07-13T03:36:29;18.20;;;5.90;;
4521;SDS011;2273;48.464;11.926;2023-07-13T03:38:59;10.10;;;6.00;;
4521;SDS011;2273;48.464;11.926;2023-07-13T03:41:35;12.93;;;6.90;;
4521;SDS011;2273;48.464;11.926;2023-07-13T03:44:01;15.37;;;6.13;;
4521;SDS011;2273;48.464;11.926;2023-07-13T03:46:27;12.20;;;5.93;;
4521;SDS011;2273;48.464;11.926;2023-07-13T03:48:52;12.80;;;7.17;;
4521;SDS011;2273;48.464;11.926;2023-07-13T03:51:18;17.03;;;7.17;;
4521;SDS011;2273;48.464;11.926;2023-07-13T03:53:45;21.30;;;6.83;;
4521;SDS011;2273;48.464;11.926;2023-07-13T03:56:13;20.63;;;7.87;;
4521;SDS011;2273;48.464;11.926;2023-07-13T03:58:41;13.83;;;7.00;;
4521;SDS011;2273;48.464;11.926;2023-07-13T04:01:13;14.13;;;7.10;;
4521;SDS011;2273;48.464;11.926;2023-07-13T04:03:41;18.77;;;7.43;;
4521;SDS011;2273;48.464;11.926;2023-07-13T04:06:07;14.63;;;6.93;;
4521;SDS011;2273;48.464;11.926;2023-07-13T04:08:34;21.40;;;7.70;;
4521;SDS011;2273;48.464;11.926;2023-07-13T04:11:01;11.97;;;6.93;;
4521;SDS011;2273;48.464;11.926;2023-07-13T04:13:28;13.30;;;8.27;;
4521;SDS011;2273;48.464;11.926;2023-07-13T04:15:53;18.93;;;7.10;;
4521;SDS011;2273;48.464;11.926;2023-07-13T04:18:19;23.40;;;7.33;;
4521;SDS011;2273;48.464;11.926;2023-07-13T04:20:46;21.80;;;7.67;;
4521;SDS011;2273;48.464;11.926;2023-07-13T04:23:12;21.50;;;9.70;;
4521;SDS011;2273;48.464;11.926;2023-07-13T04:25:37;18.30;;;7.90;;
4521;SDS011;2273;48.464;11.926;2023-07-13T04:28:03;13.60;;;7.20;;
4521;SDS011;2273;48.464;11.926;2023-07-13T04:30:29;21.60;;;8.60;;
4521;SDS011;2273;48.464;11.926;2023-07-13T04:32:54;14.87;;;7.40;;
4521;SDS011;2273;48.464;11.926;2023-07-13T04:35:20;22.83;;;6.60;;
4521;SDS011;2273;48.464;11.926;2023-07-13T04:37:46;13.57;;;7.10;;
4521;SDS011;2273;48.464;11.926;2023-07-13T04:40:13;30.77;;;8.00;;
4521;SDS011;2273;48.464;11.926;2023-07-13T04:42:39;23.70;;;7.77;;
4521;SDS011;2273;48.464;11.926;2023-07-13T04:45:05;11.33;;;6.67;;
4521;SDS011;2273;48.464;11.926;2023-07-13T04:47:32;24.07;;;8.20;;
4521;SDS011;2273;48.464;11.926;2023-07-13T04:49:57;20.23;;;7.20;;
4521;SDS011;2273;48.464;11.926;2023-07-13T04:52:23;29.50;;;8.10;;
4521;SDS011;2273;48.464;11.926;2023-07-13T04:54:49;17.37;;;7.03;;
4521;SDS011;2273;48.464;11.926;2023-07-13T04:57:14;20.17;;;8.63;;
4521;SDS011;2273;48.464;11.926;2023-07-13T04:59:39;15.53;;;7.30;;
4521;SDS011;2273;48.464;11.926;2023-07-13T05:02:05;25.23;;;7.70;;
4521;SDS011;2273;48.464;11.926;2023-07-13T05:04:30;21.37;;;7.37;;
4521;SDS011;2273;48.464;11.926;2023-07-13T05:06:56;19.07;;;7.90;;
4521;SDS011;2273;48.464;11.926;2023-07-13T05:09:21;13.07;;;6.90;;
4521;SDS011;2273;48.464;11.926;2023-07-13T05:11:47;10.33;;;6.47;;
4521;SDS011;2273;48.464;11.926;2023-07-13T05:14:12;13.37;;;6.57;;
4521;SDS011;2273;48.464;11.926;2023-07-13T05:16:38;11.40;;;7.47;;
4521;SDS011;2273;48.464;11.926;2023-07-13T05:19:03;12.60;;;6.97;;
4521;SDS011;2273;48.464;11.926;2023-07-13T05:21:29;15.90;;;7.40;;
4521;SDS011;2273;48.464;11.926;2023-07-13T05:23:54;23.93;;;7.20;;
4521;SDS011;2273;48.464;11.926;2023-07-13T05:26:20;18.50;;;7.60;;
4521;SDS011;2273;48.464;11.926;2023-07-13T05:28:45;15.83;;;5.60;;
4521;SDS011;2273;48.464;11.926;2023-07-13T05:31:11;8.70;;;6.60;;
4521;SDS011;2273;48.464;11.926;2023-07-13T05:33:37;14.20;;;7.13;;
4521;SDS011;2273;48.464;11.926;2023-07-13T05:36:02;13.53;;;5.50;;
4521;SDS011;2273;48.464;11.926;2023-07-13T05:38:28;19.17;;;5.97;;
4521;SDS011;2273;48.464;11.926;2023-07-13T05:40:54;13.43;;;6.23;;
4521;SDS011;2273;48.464;11.926;2023-07-13T05:43:20;15.17;;;6.13;;
4521;SDS011;2273;48.464;11.926;2023-07-13T05:45:46;13.30;;;5.70;;
4521;SDS011;2273;48.464;11.926;2023-07-13T05:48:12;14.87;;;5.93;;
4521;SDS011;2273;48.464;11.926;2023-07-13T05:50:37;23.57;;;5.37;;
4521;SDS011;2273;48.464;11.926;2023-07-13T05:53:03;9.03;;;4.77;;
4521;SDS011;2273;48.464;11.926;2023-07-13T05:55:28;8.23;;;4.83;;
4521;SDS011;2273;48.464;11.926;2023-07-13T05:57:54;11.77;;;6.10;;
4521;SDS011;2273;48.464;11.926;2023-07-13T06:00:19;10.40;;;5.00;;
4521;SDS011;2273;48.464;11.926;2023-07-13T06:02:45;9.17;;;5.20;;
4521;SDS011;2273;48.464;11.926;2023-07-13T06:05:10;16.50;;;4.93;;
4521;SDS011;2273;48.464;11.926;2023-07-13T06:07:36;8.17;;;4.80;;
4521;SDS011;2273;48.464;11.926;2023-07-13T06:10:02;15.87;;;5.27;;
4521;SDS011;2273;48.464;11.926;2023-07-13T06:12:28;12.47;;;4.80;;
4521;SDS011;2273;48.464;11.926;2023-07-13T06:14:53;13.03;;;4.50;;
4521;SDS011;2273;48.464;11.926;2023-07-13T06:17:18;11.40;;;5.20;;
4521;SDS011;2273;48.464;11.926;2023-07-13T06:19:44;7.00;;;4.07;;
4521;SDS011;2273;48.464;11.926;2023-07-13T06:22:09;7.03;;;4.20;;
4521;SDS011;2273;48.464;11.926;2023-07-13T06:24:35;11.17;;;4.23;;
4521;SDS011;2273;48.464;11.926;2023-07-13T06:27:00;9.73;;;4.27;;
4521;SDS011;2273;48.464;11.926;2023-07-13T06:29:26;9.03;;;4.60;;
4521;SDS011;2273;48.464;11.926;2023-07-13T06:31:51;7.53;;;4.23;;
4521;SDS011;2273;48.464;11.926;2023-07-13T06:34:16;10.33;;;4.23;;
4521;SDS011;2273;48.464;11.926;2023-07-13T06:36:42;9.83;;;4.60;;
4521;SDS011;2273;48.464;11.926;2023-07-13T06:39:08;15.53;;;5.20;;
4521;SDS011;2273;48.464;11.926;2023-07-13T06:41:33;13.10;;;4.43;;
4521;SDS011;2273;48.464;11.926;2023-07-13T06:43:59;12.43;;;3.80;;
4521;SDS011;2273;48.464;11.926;2023-07-13T06:46:25;5.63;;;3.20;;
4521;SDS011;2273;48.464;11.926;2023-07-13T06:48:50;9.20;;;3.43;;
4521;SDS011;2273;48.464;11.926;2023-07-13T06:51:16;9.67;;;4.17;;
4521;SDS011;2273;48.464;11.926;2023-07-13T06:53:41;9.30;;;3.50;;
4521;SDS011;2273;48.464;11.926;2023-07-13T06:56:08;11.13;;;3.53;;
4521;SDS011;2273;48.464;11.926;2023-07-13T06:58:35;6.97;;;3.67;;
4521;SDS011;2273;48.464;11.926;2023-07-13T07:01:01;17.07;;;3.73;;
4521;SDS011;2273;48.464;11.926;2023-07-13T07:03:26;16.03;;;4.30;;
4521;SDS011;2273;48.464;11.926;2023-07-13T07:05:52;9.13;;;3.30;;
4521;SDS011;2273;48.464;11.926;2023-07-13T07:08:17;7.50;;;3.60;;
4521;SDS011;2273;48.464;11.926;2023-07-13T07:10:43;7.33;;;3.10;;
4521;SDS011;2273;48.464;11.926;2023-07-13T07:13:08;14.60;;;2.83;;
4521;SDS011;2273;48.464;11.926;2023-07-13T07:15:34;10.53;;;3.17;;
4521;SDS011;2273;48.464;11.926;2023-07-13T07:18:00;7.33;;;3.07;;
4521;SDS011;2273;48.464;11.926;2023-07-13T07:20:25;3.77;;;2.80;;
4521;SDS011;2273;48.464;11.926;2023-07-13T07:22:51;9.73;;;3.60;;
4521;SDS011;2273;48.464;11.926;2023-07-13T07:25:17;5.83;;;3.57;;
4521;SDS011;2273;48.464;11.926;2023-07-13T07:27:43;15.40;;;3.83;;
4521;SDS011;2273;48.464;11.926;2023-07-13T07:30:09;4.37;;;2.87;;
4521;SDS011;2273;48.464;11.926;2023-07-13T07:32:35;10.97;;;3.80;;
4521;SDS011;2273;48.464;11.926;2023-07-13T07:35:00;17.23;;;3.53;;
4521;SDS011;2273;48.464;11.926;2023-07-13T07:37:26;6.27;;;2.73;;
4521;SDS011;2273;48.464;11.926;2023-07-13T07:39:51;9.80;;;3.30;;
4521;SDS011;2273;48.464;11.926;2023-07-13T07:42:16;9.00;;;3.40;;
4521;SDS011;2273;48.464;11.926;2023-07-13T07:44:42;11.43;;;3.33;;
4521;SDS011;2273;48.464;11.926;2023-07-13T07:47:08;10.00;;;3.43;;
4521;SDS011;2273;48.464;11.926;2023-07-13T07:49:34;8.93;;;3.20;;
4521;SDS011;2273;48.464;11.926;2023-07-13T07:52:00;9.17;;;3.20;;
4521;SDS011;2273;48.464;11.926;2023-07-13T07:54:25;3.70;;;2.90;;
4521;SDS011;2273;48.464;11.926;2023-07-13T07:56:51;15.83;;;3.47;;
4521;SDS011;2273;48.464;11.926;2023-07-13T07:59:16;18.67;;;3.90;;
4521;SDS011;2273;48.464;11.926;2023-07-13T08:01:42;13.87;;;3.20;;
4521;SDS011;2273;48.464;11.926;2023-07-13T08:04:10;5.27;;;3.33;;
4521;SDS011;2273;48.464;11.926;2023-07-13T08:06:36;8.33;;;3.50;;
4521;SDS011;2273;48.464;11.926;2023-07-13T08:09:01;6.80;;;3.50;;
4521;SDS011;2273;48.464;11.926;2023-07-13T08:11:28;5.73;;;3.10;;
4521;SDS011;2273;48.464;11.926;2023-07-13T08:13:54;4.27;;;2.80;;
4521;SDS011;2273;48.464;11.926;2023-07-13T08:16:19;10.17;;;3.20;;
4521;SDS011;2273;48.464;11.926;2023-07-13T08:18:45;5.70;;;3.50;;
4521;SDS011;2273;48.464;11.926;2023-07-13T08:21:10;14.10;;;4.20;;
4521;SDS011;2273;48.464;11.926;2023-07-13T08:23:35;5.67;;;2.83;;
4521;SDS011;2273;48.464;11.926;2023-07-13T08:26:01;6.53;;;3.40;;
4521;SDS011;2273;48.464;11.926;2023-07-13T08:28:28;11.07;;;3.10;;
4521;SDS011;2273;48.464;11.926;2023-07-13T08:30:53;7.17;;;3.23;;
4521;SDS011;2273;48.464;11.926;2023-07-13T08:33:19;6.27;;;3.17;;
4521;SDS011;2273;48.464;11.926;2023-07-13T08:35:46;5.93;;;3.17;;
4521;SDS011;2273;48.464;11.926;2023-07-13T08:38:15;6.30;;;3.30;;
4521;SDS011;2273;48.464;11.926;2023-07-13T08:40:42;5.00;;;3.27;;
4521;SDS011;2273;48.464;11.926;2023-07-13T08:43:15;8.70;;;2.97;;
4521;SDS011;2273;48.464;11.926;2023-07-13T08:50:51;6.70;;;3.30;;
4521;SDS011;2273;48.464;11.926;2023-07-13T08:53:22;16.03;;;3.50;;
4521;SDS011;2273;48.464;11.926;2023-07-13T08:55:50;4.23;;;2.63;;
4521;SDS011;2273;48.464;11.926;2023-07-13T08:58:18;12.20;;;2.97;;
4521;SDS011;2273;48.464;11.926;2023-07-13T09:03:12;9.70;;;3.20;;
4521;SDS011;2273;48.464;11.926;2023-07-13T09:05:45;14.93;;;3.40;;
4521;SDS011;2273;48.464;11.926;2023-07-13T09:10:52;9.53;;;3.80;;
4521;SDS011;2273;48.464;11.926;2023-07-13T09:13:58;14.23;;;2.70;;
4521;SDS011;2273;48.464;11.926;2023-07-13T09:16:32;4.67;;;2.90;;
4521;SDS011;2273;48.464;11.926;2023-07-13T09:19:04;5.50;;;2.90;;
4521;SDS011;2273;48.464;11.926;2023-07-13T09:21:36;11.20;;;4.13;;
4521;SDS011;2273;48.464;11.926;2023-07-13T09:24:46;7.50;;;2.90;;
4521;SDS011;2273;48.464;11.926;2023-07-13T09:26:53;3.67;;;2.50;;
4521;SDS011;2273;48.464;11.926;2023-07-13T09:29:29;7.10;;;2.70;;
4521;SDS011;2273;48.464;11.926;2023-07-13T09:31:58;6.10;;;2.70;;
4521;SDS011;2273;48.464;11.926;2023-07-13T09:34:27;5.37;;;2.90;;
4521;SDS011;2273;48.464;11.926;2023-07-13T09:36:55;5.00;;;2.73;;
4521;SDS011;2273;48.464;11.926;2023-07-13T09:39:24;4.03;;;2.40;;
4521;SDS011;2273;48.464;11.926;2023-07-13T09:41:57;4.13;;;2.30;;
4521;SDS011;2273;48.464;11.926;2023-07-13T09:49:48;7.90;;;2.80;;
4521;SDS011;2273;48.464;11.926;2023-07-13T09:52:19;5.70;;;2.30;;
4521;SDS011;2273;48.464;11.926;2023-07-13T09:54:45;7.53;;;2.87;;
4521;SDS011;2273;48.464;11.926;2023-07-13T09:57:22;5.23;;;2.60;;
4521;SDS011;2273;48.464;11.926;2023-07-13T09:59:49;5.13;;;2.90;;
4521;SDS011;2273;48.464;11.926;2023-07-13T10:02:26;6.60;;;2.80;;
4521;SDS011;2273;48.464;11.926;2023-07-13T10:05:04;9.07;;;3.20;;
4521;SDS011;2273;48.464;11.926;2023-07-13T10:07:40;5.40;;;2.40;;
4521;SDS011;2273;48.464;11.926;2023-07-13T10:10:16;7.03;;;2.63;;
4521;SDS011;2273;48.464;11.926;2023-07-13T10:12:43;9.13;;;2.60;;
4521;SDS011;2273;48.464;11.926;2023-07-13T10:15:16;5.10;;;2.50;;
4521;SDS011;2273;48.464;11.926;2023-07-13T10:17:44;5.33;;;2.67;;
4521;SDS011;2273;48.464;11.926;2023-07-13T10:20:09;5.30;;;2.10;;
4521;SDS011;2273;48.464;11.926;2023-07-13T10:25:30;14.67;;;2.87;;
4521;SDS011;2273;48.464;11.926;2023-07-13T10:27:58;7.23;;;2.43;;
4521;SDS011;2273;48.464;11.926;2023-07-13T10:30:31;6.03;;;2.00;;
4521;SDS011;2273;48.464;11.926;2023-07-13T10:33:01;5.40;;;2.70;;
4521;SDS011;2273;48.464;11.926;2023-07-13T10:35:27;5.10;;;2.90;;
4521;SDS011;2273;48.464;11.926;2023-07-13T10:37:58;4.57;;;3.00;;
4521;SDS011;2273;48.464;11.926;2023-07-13T10:40:34;4.93;;;2.63;;
4521;SDS011;2273;48.464;11.926;2023-07-13T10:43:04;11.63;;;2.50;;
4521;SDS011;2273;48.464;11.926;2023-07-13T10:45:33;10.10;;;2.43;;
4521;SDS011;2273;48.464;11.926;2023-07-13T10:48:00;7.60;;;2.50;;
4521;SDS011;2273;48.464;11.926;2023-07-13T10:50:26;8.87;;;2.67;;
4521;SDS011;2273;48.464;11.926;2023-07-13T10:52:54;6.97;;;2.60;;
4521;SDS011;2273;48.464;11.926;2023-07-13T10:56:05;4.63;;;2.73;;
4521;SDS011;2273;48.464;11.926;2023-07-13T11:00:46;4.37;;;2.23;;
4521;SDS011;2273;48.464;11.926;2023-07-13T11:03:14;11.40;;;2.70;;
4521;SDS011;2273;48.464;11.926;2023-07-13T11:05:43;6.40;;;2.13;;
4521;SDS011;2273;48.464;11.926;2023-07-13T11:10:50;6.70;;;1.80;;
4521;SDS011;2273;48.464;11.926;2023-07-13T11:14:26;3.53;;;1.93;;
4521;SDS011;2273;48.464;11.926;2023-07-13T11:18:48;3.67;;;2.00;;
4521;SDS011;2273;48.464;11.926;2023-07-13T11:21:16;3.90;;;1.80;;
4521;SDS011;2273;48.464;11.926;2023-07-13T11:23:54;3.20;;;1.57;;
4521;SDS011;2273;48.464;11.926;2023-07-13T11:34:55;6.47;;;1.83;;
4521;SDS011;2273;48.464;11.926;2023-07-13T11:37:20;6.53;;;1.80;;
4521;SDS011;2273;48.464;11.926;2023-07-13T11:39:47;8.20;;;2.00;;
4521;SDS011;2273;48.464;11.926;2023-07-13T11:42:13;5.80;;;1.83;;
4521;SDS011;2273;48.464;11.926;2023-07-13T11:44:48;2.47;;;1.60;;
4521;SDS011;2273;48.464;11.926;2023-07-13T11:47:18;5.60;;;2.60;;
4521;SDS011;2273;48.464;11.926;2023-07-13T11:49:49;2.40;;;1.67;;
4521;SDS011;2273;48.464;11.926;2023-07-13T11:52:29;5.07;;;1.80;;
4521;SDS011;2273;48.464;11.926;2023-07-13T11:54:57;7.83;;;2.00;;
4521;SDS011;2273;48.464;11.926;2023-07-13T11:57:27;3.27;;;1.80;;
4521;SDS011;2273;48.464;11.926;2023-07-13T11:59:54;3.37;;;2.00;;
4521;SDS011;2273;48.464;11.926;2023-07-13T12:02:32;3.73;;;1.70;;
4521;SDS011;2273;48.464;11.926;2023-07-13T12:05:00;2.30;;;1.60;;
4521;SDS011;2273;48.464;11.926;2023-07-13T12:07:31;3.90;;;1.70;;
4521;SDS011;2273;48.464;11.926;2023-07-13T12:10:02;13.57;;;1.93;;
4521;SDS011;2273;48.464;11.926;2023-07-13T12:12:29;3.97;;;1.80;;
4521;SDS011;2273;48.464;11.926;2023-07-13T12:14:55;11.33;;;2.30;;
4521;SDS011;2273;48.464;11.926;2023-07-13T12:17:22;3.30;;;1.90;;
4521;SDS011;2273;48.464;11.926;2023-07-13T12:19:48;3.90;;;1.80;;
4521;SDS011;2273;48.464;11.926;2023-07-13T12:22:16;4.73;;;1.70;;
4521;SDS011;2273;48.464;11.926;2023-07-13T12:24:43;6.00;;;2.33;;
4521;SDS011;2273;48.464;11.926;2023-07-13T12:27:26;3.70;;;1.83;;
4521;SDS011;2273;48.464;11.926;2023-07-13T12:30:03;4.87;;;1.90;;
4521;SDS011;2273;48.464;11.926;2023-07-13T12:32:30;5.80;;;1.90;;
4521;SDS011;2273;48.464;11.926;2023-07-13T12:35:17;3.30;;;1.60;;
4521;SDS011;2273;48.464;11.926;2023-07-13T12:37:51;3.13;;;1.50;;
4521;SDS011;2273;48.464;11.926;2023-07-13T12:40:17;2.43;;;1.40;;
4521;SDS011;2273;48.464;11.926;2023-07-13T12:42:45;4.63;;;1.57;;
4521;SDS011;2273;48.464;11.926;2023-07-13T12:45:19;3.03;;;1.80;;
4521;SDS011;2273;48.464;11.926;2023-07-13T12:47:49;4.53;;;2.03;;
4521;SDS011;2273;48.464;11.926;2023-07-13T12:50:20;4.93;;;1.80;;
4521;SDS011;2273;48.464;11.926;2023-07-13T12:52:51;5.00;;;1.73;;
4521;SDS011;2273;48.464;11.926;2023-07-13T12:55:19;2.93;;;1.60;;
4521;SDS011;2273;48.464;11.926;2023-07-13T12:57:53;3.20;;;1.70;;
4521;SDS011;2273;48.464;11.926;2023-07-13T13:00:24;3.83;;;2.10;;
4521;SDS011;2273;48.464;11.926;2023-07-13T13:03:07;9.70;;;2.00;;
4521;SDS011;2273;48.464;11.926;2023-07-13T13:05:44;5.83;;;1.80;;
4521;SDS011;2273;48.464;11.926;2023-07-13T13:08:11;3.30;;;2.07;;
4521;SDS011;2273;48.464;11.926;2023-07-13T13:10:37;6.90;;;1.97;;
4521;SDS011;2273;48.464;11.926;2023-07-13T13:13:02;5.57;;;1.87;;
4521;SDS011;2273;48.464;11.926;2023-07-13T13:15:28;4.87;;;2.30;;
4521;SDS011;2273;48.464;11.926;2023-07-13T13:17:55;8.37;;;2.20;;
4521;SDS011;2273;48.464;11.926;2023-07-13T13:20:21;12.40;;;2.13;;
4521;SDS011;2273;48.464;11.926;2023-07-13T13:22:48;3.43;;;1.93;;
4521;SDS011;2273;48.464;11.926;2023-07-13T13:25:14;3.60;;;1.40;;
4521;SDS011;2273;48.464;11.926;2023-07-13T13:27:40;3.27;;;1.60;;
4521;SDS011;2273;48.464;11.926;2023-07-13T13:30:10;2.93;;;1.80;;
4521;SDS011;2273;48.464;11.926;2023-07-13T13:32:41;23.83;;;2.53;;
4521;SDS011;2273;48.464;11.926;2023-07-13T13:35:12;2.47;;;1.70;;
4521;SDS011;2273;48.464;11.926;2023-07-13T13:37:39;5.47;;;2.30;;
4521;SDS011;2273;48.464;11.926;2023-07-13T13:40:12;4.63;;;1.97;;
4521;SDS011;2273;48.464;11.926;2023-07-13T13:42:42;2.90;;;2.00;;
4521;SDS011;2273;48.464;11.926;2023-07-13T13:45:11;4.23;;;1.90;;
4521;SDS011;2273;48.464;11.926;2023-07-13T13:47:41;4.73;;;1.80;;
4521;SDS011;2273;48.464;11.926;2023-07-13T13:50:10;4.27;;;1.73;;
4521;SDS011;2273;48.464;11.926;2023-07-13T13:52:43;2.97;;;1.90;;
4521;SDS011;2273;48.464;11.926;2023-07-13T13:55:15;2.47;;;1.77;;
4521;SDS011;2273;48.464;11.926;2023-07-13T13:57:44;5.50;;;2.00;;
4521;SDS011;2273;48.464;11.926;2023-07-13T14:00:10;6.77;;;2.53;;
4521;SDS011;2273;48.464;11.926;2023-07-13T14:02:40;15.40;;;2.67;;
4521;SDS011;2273;48.464;11.926;2023-07-13T14:05:06;2.80;;;1.73;;
4521;SDS011;2273;48.464;11.926;2023-07-13T14:07:33;3.43;;;2.27;;
4521;SDS011;2273;48.464;11.926;2023-07-13T14:09:58;3.57;;;1.87;;
4521;SDS011;2273;48.464;11.926;2023-07-13T14:12:26;5.60;;;2.13;;
4521;SDS011;2273;48.464;11.926;2023-07-13T14:14:54;3.63;;;2.10;;
4521;SDS011;2273;48.464;11.926;2023-07-13T14:17:21;3.50;;;2.23;;
4521;SDS011;2273;48.464;11.926;2023-07-13T14:19:51;8.13;;;2.00;;
4521;SDS011;2273;48.464;11.926;2023-07-13T14:22:17;2.30;;;1.80;;
4521;SDS011;2273;48.464;11.926;2023-07-13T14:24:43;3.83;;;1.90;;
4521;SDS011;2273;48.464;11.926;2023-07-13T14:27:09;3.97;;;2.03;;
4521;SDS011;2273;48.464;11.926;2023-07-13T14:29:36;5.93;;;1.90;;
4521;SDS011;2273;48.464;11.926;2023-07-13T14:32:01;4.67;;;2.33;;
4521;SDS011;2273;48.464;11.926;2023-07-13T14:34:27;7.13;;;1.97;;
4521;SDS011;2273;48.464;11.926;2023-07-13T14:36:53;3.40;;;1.80;;
4521;SDS011;2273;48.464;11.926;2023-07-13T14:39:19;3.23;;;1.87;;
4521;SDS011;2273;48.464;11.926;2023-07-13T14:41:49;3.67;;;1.90;;
4521;SDS011;2273;48.464;11.926;2023-07-13T14:44:16;4.43;;;2.53;;
4521;SDS011;2273;48.464;11.926;2023-07-13T14:46:43;3.10;;;2.00;;
4521;SDS011;2273;48.464;11.926;2023-07-13T14:49:52;4.00;;;2.10;;
4521;SDS011;2273;48.464;11.926;2023-07-13T14:52:01;3.30;;;1.80;;
4521;SDS011;2273;48.464;11.926;2023-07-13T14:54:29;6.50;;;2.00;;
4521;SDS011;2273;48.464;11.926;2023-07-13T14:56:54;3.33;;;1.90;;
4521;SDS011;2273;48.464;11.926;2023-07-13T14:59:19;5.37;;;2.10;;
4521;SDS011;2273;48.464;11.926;2023-07-13T15:01:45;4.77;;;2.07;;
4521;SDS011;2273;48.464;11.926;2023-07-13T15:04:11;3.63;;;2.03;;
4521;SDS011;2273;48.464;11.926;2023-07-13T15:06:52;5.63;;;2.20;;
4521;SDS011;2273;48.464;11.926;2023-07-13T15:09:18;4.60;;;1.93;;
4521;SDS011;2273;48.464;11.926;2023-07-13T15:11:43;8.60;;;1.63;;
4521;SDS011;2273;48.464;11.926;2023-07-13T15:14:09;4.80;;;1.90;;
4521;SDS011;2273;48.464;11.926;2023-07-13T15:16:34;7.77;;;2.17;;
4521;SDS011;2273;48.464;11.926;2023-07-13T15:19:00;3.37;;;2.20;;
4521;SDS011;2273;48.464;11.926;2023-07-13T15:21:26;3.30;;;1.47;;
4521;SDS011;2273;48.464;11.926;2023-07-13T15:23:56;5.47;;;1.80;;
4521;SDS011;2273;48.464;11.926;2023-07-13T15:26:21;4.93;;;2.00;;
4521;SDS011;2273;48.464;11.926;2023-07-13T15:28:47;3.83;;;1.90;;
4521;SDS011;2273;48.464;11.926;2023-07-13T15:31:20;3.00;;;1.80;;
4521;SDS011;2273;48.464;11.926;2023-07-13T15:33:47;4.27;;;1.80;;
4521;SDS011;2273;48.464;11.926;2023-07-13T15:36:17;3.70;;;1.47;;